Terminal Aerodrome Forecast
Issued by NWS

Home | Current Version | Previous Version | Text Only | Print | Product List | Glossary On
Versions: 1 2 3 4 5 6 7 8 9 10 11 12 13 14 15 16
000
FTUS45 KVEF 050650 AAA
TAFVGT
TAF AMD
KVGT 050650Z 0507/0606 VRB06KT P6SM VCSH SCT100 BKN140
      TEMPO 0507/0508 -SHRA SCT060 BKN090
     FM052100 21011G18KT P6SM FEW120 SCT250=

USA.gov is the U.S. government's official web portal to all federal, state and local government web resources and services.